sensor_id;sensor_type;location;lat;lon;timestamp;pressure;altitude;pressure_sealevel;temperature;humidity
40490;BME280;26196;52.302;10.572;2022-11-03T00:02:20;101001.13;;;14.01;47.72
40490;BME280;26196;52.302;10.572;2022-11-03T00:06:21;100996.78;;;14.00;47.92
40490;BME280;26196;52.302;10.572;2022-11-03T00:10:21;100995.06;;;13.99;47.90
40490;BME280;26196;52.302;10.572;2022-11-03T00:14:22;100990.72;;;13.98;47.73
40490;BME280;26196;52.302;10.572;2022-11-03T00:18:22;100983.75;;;13.97;47.89
40490;BME280;26196;52.302;10.572;2022-11-03T00:22:23;100988.19;;;13.95;47.59
40490;BME280;26196;52.302;10.572;2022-11-03T00:26:25;100982.13;;;13.93;47.79
40490;BME280;26196;52.302;10.572;2022-11-03T00:30:25;100983.13;;;13.89;47.29
40490;BME280;26196;52.302;10.572;2022-11-03T00:34:26;100953.91;;;13.72;47.47
40490;BME280;26196;52.302;10.572;2022-11-03T00:38:29;100972.81;;;13.83;47.25
40490;BME280;26196;52.302;10.572;2022-11-03T00:42:30;100983.22;;;13.86;47.36
40490;BME280;26196;52.302;10.572;2022-11-03T00:46:31;100971.00;;;13.85;47.16
40490;BME280;26196;52.302;10.572;2022-11-03T00:50:34;100968.34;;;13.85;47.46
40490;BME280;26196;52.302;10.572;2022-11-03T00:54:34;100958.78;;;13.83;47.20
40490;BME280;26196;52.302;10.572;2022-11-03T00:58:35;100963.97;;;13.84;47.18
40490;BME280;26196;52.302;10.572;2022-11-03T01:02:35;100966.78;;;13.79;47.26
40490;BME280;26196;52.302;10.572;2022-11-03T01:06:39;100957.13;;;13.80;47.23
40490;BME280;26196;52.302;10.572;2022-11-03T01:10:53;100964.19;;;13.78;47.24
40490;BME280;26196;52.302;10.572;2022-11-03T01:15:12;100958.19;;;13.74;47.10
40490;BME280;26196;52.302;10.572;2022-11-03T01:19:13;100952.16;;;13.71;47.20
40490;BME280;26196;52.302;10.572;2022-11-03T01:23:13;100954.75;;;13.72;47.62
40490;BME280;26196;52.302;10.572;2022-11-03T01:27:18;100948.75;;;13.69;46.64
40490;BME280;26196;52.302;10.572;2022-11-03T01:31:22;100939.19;;;13.66;47.41
40490;BME280;26196;52.302;10.572;2022-11-03T01:35:23;100935.66;;;13.66;47.74
40490;BME280;26196;52.302;10.572;2022-11-03T01:39:23;100926.06;;;13.65;47.74
40490;BME280;26196;52.302;10.572;2022-11-03T01:43:24;100928.69;;;13.65;47.71
40490;BME280;26196;52.302;10.572;2022-11-03T01:47:29;100927.88;;;13.63;47.27
40490;BME280;26196;52.302;10.572;2022-11-03T01:51:33;100915.66;;;13.62;47.83
40490;BME280;26196;52.302;10.572;2022-11-03T01:55:36;100906.94;;;13.60;47.22
40490;BME280;26196;52.302;10.572;2022-11-03T01:59:40;100898.22;;;13.57;47.83
40490;BME280;26196;52.302;10.572;2022-11-03T02:03:46;100897.50;;;13.54;47.57
40490;BME280;26196;52.302;10.572;2022-11-03T02:07:52;100889.59;;;13.54;46.96
40490;BME280;26196;52.302;10.572;2022-11-03T02:11:55;100885.31;;;13.51;47.46
40490;BME280;26196;52.302;10.572;2022-11-03T02:16:07;100878.38;;;13.49;47.69
40490;BME280;26196;52.302;10.572;2022-11-03T02:20:17;100868.72;;;13.49;47.05
40490;BME280;26196;52.302;10.572;2022-11-03T02:28:30;100857.34;;;13.49;47.25
40490;BME280;26196;52.302;10.572;2022-11-03T02:37:11;100835.75;;;13.39;47.16
40490;BME280;26196;52.302;10.572;2022-11-03T02:41:14;100833.94;;;13.41;47.39
40490;BME280;26196;52.302;10.572;2022-11-03T02:45:18;100834.84;;;13.40;47.00
40490;BME280;26196;52.302;10.572;2022-11-03T02:49:19;100839.22;;;13.40;47.54
40490;BME280;26196;52.302;10.572;2022-11-03T02:53:20;100827.94;;;13.38;47.58
40490;BME280;26196;52.302;10.572;2022-11-03T02:57:24;100834.03;;;13.38;47.21
40490;BME280;26196;52.302;10.572;2022-11-03T03:01:34;100827.03;;;13.37;47.58
40490;BME280;26196;52.302;10.572;2022-11-03T03:05:46;100827.97;;;13.36;47.79
40490;BME280;26196;52.302;10.572;2022-11-03T03:09:57;100829.66;;;13.37;46.80
40490;BME280;26196;52.302;10.572;2022-11-03T03:14:00;100825.28;;;13.38;48.54
40490;BME280;26196;52.302;10.572;2022-11-03T03:18:23;100820.06;;;13.36;47.43
40490;BME280;26196;52.302;10.572;2022-11-03T03:26:43;100817.44;;;13.36;46.69
40490;BME280;26196;52.302;10.572;2022-11-03T03:30:47;100817.56;;;13.33;47.86
40490;BME280;26196;52.302;10.572;2022-11-03T03:34:49;100800.94;;;13.32;47.20
40490;BME280;26196;52.302;10.572;2022-11-03T03:39:03;100799.19;;;13.31;47.93
40490;BME280;26196;52.302;10.572;2022-11-03T03:43:07;100796.56;;;13.31;47.23
40490;BME280;26196;52.302;10.572;2022-11-03T03:47:16;100791.41;;;13.28;47.32
40490;BME280;26196;52.302;10.572;2022-11-03T03:51:21;100781.75;;;13.29;48.34
40490;BME280;26196;52.302;10.572;2022-11-03T03:55:28;100769.59;;;13.25;47.98
40490;BME280;26196;52.302;10.572;2022-11-03T03:59:31;100776.56;;;13.26;48.06
40490;BME280;26196;52.302;10.572;2022-11-03T04:03:32;100774.78;;;13.28;47.67
40490;BME280;26196;52.302;10.572;2022-11-03T04:07:33;100761.69;;;13.26;48.31
40490;BME280;26196;52.302;10.572;2022-11-03T04:11:48;100762.53;;;13.27;48.46
40490;BME280;26196;52.302;10.572;2022-11-03T04:16:08;100745.03;;;13.26;48.88
40490;BME280;26196;52.302;10.572;2022-11-03T04:20:27;100747.69;;;13.24;49.40
40490;BME280;26196;52.302;10.572;2022-11-03T04:24:48;100741.53;;;13.25;49.06
40490;BME280;26196;52.302;10.572;2022-11-03T04:28:50;100732.81;;;13.25;49.20
40490;BME280;26196;52.302;10.572;2022-11-03T04:32:52;100735.53;;;13.22;48.80
40490;BME280;26196;52.302;10.572;2022-11-03T04:36:53;100736.31;;;13.24;49.12
40490;BME280;26196;52.302;10.572;2022-11-03T04:40:58;100718.13;;;13.19;49.14
40490;BME280;26196;52.302;10.572;2022-11-03T04:44:59;100713.59;;;13.23;49.55
40490;BME280;26196;52.302;10.572;2022-11-03T04:49:03;100701.47;;;13.19;49.01
40490;BME280;26196;52.302;10.572;2022-11-03T04:53:10;100707.50;;;13.22;48.68
40490;BME280;26196;52.302;10.572;2022-11-03T04:57:12;100701.38;;;13.22;49.36
40490;BME280;26196;52.302;10.572;2022-11-03T05:01:16;100697.63;;;13.29;50.47
40490;BME280;26196;52.302;10.572;2022-11-03T05:05:20;100699.13;;;13.36;50.34
40490;BME280;26196;52.302;10.572;2022-11-03T05:09:26;100693.66;;;13.42;51.56
40490;BME280;26196;52.302;10.572;2022-11-03T05:13:28;100683.94;;;13.44;53.12
40490;BME280;26196;52.302;10.572;2022-11-03T05:17:29;100683.75;;;13.50;52.24
40490;BME280;26196;52.302;10.572;2022-11-03T05:21:29;100680.88;;;13.56;53.24
40490;BME280;26196;52.302;10.572;2022-11-03T05:25:48;100678.28;;;13.55;52.66
40490;BME280;26196;52.302;10.572;2022-11-03T05:29:50;100683.78;;;13.49;52.27
40490;BME280;26196;52.302;10.572;2022-11-03T05:33:53;100667.28;;;13.45;51.72
40490;BME280;26196;52.302;10.572;2022-11-03T05:37:55;100674.22;;;13.46;51.27
40490;BME280;26196;52.302;10.572;2022-11-03T05:41:59;100670.78;;;13.44;51.87
40490;BME280;26196;52.302;10.572;2022-11-03T05:46:02;100665.75;;;13.38;51.46
40490;BME280;26196;52.302;10.572;2022-11-03T05:50:22;100666.56;;;13.40;51.48
40490;BME280;26196;52.302;10.572;2022-11-03T05:54:28;100661.31;;;13.40;50.99
40490;BME280;26196;52.302;10.572;2022-11-03T05:58:37;100660.50;;;13.38;51.92
40490;BME280;26196;52.302;10.572;2022-11-03T06:02:40;100662.28;;;13.38;51.92
40490;BME280;26196;52.302;10.572;2022-11-03T06:06:46;100662.31;;;13.36;51.43
40490;BME280;26196;52.302;10.572;2022-11-03T06:10:52;100665.81;;;13.37;51.35
40490;BME280;26196;52.302;10.572;2022-11-03T06:14:53;100667.56;;;13.61;57.86
40490;BME280;26196;52.302;10.572;2022-11-03T06:18:53;100655.53;;;13.77;57.70
40490;BME280;26196;52.302;10.572;2022-11-03T06:22:54;100657.75;;;13.88;56.83
40490;BME280;26196;52.302;10.572;2022-11-03T06:26:55;100655.75;;;13.95;56.76
40490;BME280;26196;52.302;10.572;2022-11-03T06:30:57;100664.41;;;13.97;55.73
40490;BME280;26196;52.302;10.572;2022-11-03T06:34:58;100659.16;;;13.97;55.10
40490;BME280;26196;52.302;10.572;2022-11-03T06:39:02;100656.34;;;14.01;55.26
40490;BME280;26196;52.302;10.572;2022-11-03T06:43:23;100669.38;;;14.05;55.04
40490;BME280;26196;52.302;10.572;2022-11-03T06:47:26;100648.47;;;14.01;55.37
40490;BME280;26196;52.302;10.572;2022-11-03T06:51:29;100662.25;;;14.08;54.86
40490;BME280;26196;52.302;10.572;2022-11-03T06:55:36;100652.56;;;14.09;55.27
40490;BME280;26196;52.302;10.572;2022-11-03T06:59:37;100643.94;;;14.05;54.48
40490;BME280;26196;52.302;10.572;2022-11-03T07:03:39;100636.22;;;14.00;54.07
40490;BME280;26196;52.302;10.572;2022-11-03T07:07:40;100645.66;;;14.06;54.72
40490;BME280;26196;52.302;10.572;2022-11-03T07:11:51;100636.91;;;14.06;54.50
40490;BME280;26196;52.302;10.572;2022-11-03T07:15:52;100635.13;;;14.06;54.21
40490;BME280;26196;52.302;10.572;2022-11-03T07:19:52;100639.53;;;14.06;53.92
40490;BME280;26196;52.302;10.572;2022-11-03T07:23:53;100629.44;;;13.95;54.52
40490;BME280;26196;52.302;10.572;2022-11-03T07:27:54;100631.78;;;14.03;54.58
40490;BME280;26196;52.302;10.572;2022-11-03T07:31:58;100618.97;;;13.93;53.86
40490;BME280;26196;52.302;10.572;2022-11-03T07:35:59;100616.56;;;13.87;53.47
40490;BME280;26196;52.302;10.572;2022-11-03T07:39:59;100616.66;;;13.84;53.00
40490;BME280;26196;52.302;10.572;2022-11-03T07:44:00;100604.44;;;13.83;53.21
40490;BME280;26196;52.302;10.572;2022-11-03T07:48:16;100593.19;;;13.79;53.09
40490;BME280;26196;52.302;10.572;2022-11-03T07:52:20;100581.91;;;13.76;53.53
40490;BME280;26196;52.302;10.572;2022-11-03T07:56:26;100587.31;;;13.73;53.72
40490;BME280;26196;52.302;10.572;2022-11-03T08:00:28;100576.78;;;13.73;53.68
40490;BME280;26196;52.302;10.572;2022-11-03T08:04:30;100576.78;;;13.73;53.98
40490;BME280;26196;52.302;10.572;2022-11-03T08:08:32;100560.28;;;13.69;54.17
40490;BME280;26196;52.302;10.572;2022-11-03T08:12:33;100555.91;;;13.68;53.68
40490;BME280;26196;52.302;10.572;2022-11-03T08:16:33;100546.44;;;13.64;53.87
40490;BME280;26196;52.302;10.572;2022-11-03T08:20:34;100542.03;;;13.65;54.74
40490;BME280;26196;52.302;10.572;2022-11-03T08:24:34;100535.00;;;13.65;54.43
40490;BME280;26196;52.302;10.572;2022-11-03T08:28:35;100528.94;;;13.63;54.78
40490;BME280;26196;52.302;10.572;2022-11-03T08:32:35;100516.72;;;13.62;55.18
40490;BME280;26196;52.302;10.572;2022-11-03T08:36:36;100508.81;;;13.62;54.53
40490;BME280;26196;52.302;10.572;2022-11-03T08:40:36;100505.38;;;13.60;55.15
40490;BME280;26196;52.302;10.572;2022-11-03T08:44:37;100510.59;;;13.62;54.92
40490;BME280;26196;52.302;10.572;2022-11-03T08:48:37;100499.22;;;13.61;55.31
40490;BME280;26196;52.302;10.572;2022-11-03T08:52:38;100491.38;;;13.60;55.10
40490;BME280;26196;52.302;10.572;2022-11-03T08:56:38;100489.69;;;13.59;55.42
40490;BME280;26196;52.302;10.572;2022-11-03T09:00:39;100487.91;;;13.59;55.57
40490;BME280;26196;52.302;10.572;2022-11-03T09:04:39;100481.00;;;13.56;55.30
40490;BME280;26196;52.302;10.572;2022-11-03T09:08:40;100472.19;;;13.57;55.54
40490;BME280;26196;52.302;10.572;2022-11-03T09:12:40;100464.28;;;13.57;56.19
40490;BME280;26196;52.302;10.572;2022-11-03T09:16:40;100466.06;;;13.57;55.46
40490;BME280;26196;52.302;10.572;2022-11-03T09:20:41;100452.97;;;13.55;56.16
40490;BME280;26196;52.302;10.572;2022-11-03T09:24:41;100439.06;;;13.53;55.69
40490;BME280;26196;52.302;10.572;2022-11-03T09:28:42;100438.91;;;13.56;56.27
40490;BME280;26196;52.302;10.572;2022-11-03T09:32:43;100439.81;;;13.55;56.48
40490;BME280;26196;52.302;10.572;2022-11-03T09:36:43;100440.75;;;13.54;56.38
40490;BME280;26196;52.302;10.572;2022-11-03T09:40:44;100431.94;;;13.55;56.59
40490;BME280;26196;52.302;10.572;2022-11-03T09:44:44;100424.03;;;13.55;56.80
40490;BME280;26196;52.302;10.572;2022-11-03T09:48:48;100420.69;;;13.52;56.61
40490;BME280;26196;52.302;10.572;2022-11-03T09:52:48;100428.41;;;13.56;56.48
40490;BME280;26196;52.302;10.572;2022-11-03T09:56:51;100425.78;;;13.56;56.79
40490;BME280;26196;52.302;10.572;2022-11-03T10:00:52;100423.16;;;13.56;56.77
40490;BME280;26196;52.302;10.572;2022-11-03T10:04:55;100423.06;;;13.58;56.95
40490;BME280;26196;52.302;10.572;2022-11-03T10:08:56;100416.09;;;13.57;57.19
40490;BME280;26196;52.302;10.572;2022-11-03T10:12:58;100408.25;;;13.55;56.97
40490;BME280;26196;52.302;10.572;2022-11-03T10:16:59;100409.06;;;13.57;56.58
40490;BME280;26196;52.302;10.572;2022-11-03T10:21:05;100405.53;;;13.59;56.71
40490;BME280;26196;52.302;10.572;2022-11-03T10:29:28;100396.59;;;13.63;56.45
40490;BME280;26196;52.302;10.572;2022-11-03T10:33:31;100395.69;;;13.64;56.57
40490;BME280;26196;52.302;10.572;2022-11-03T10:37:33;100388.63;;;13.64;57.61
40490;BME280;26196;52.302;10.572;2022-11-03T10:41:36;100383.28;;;13.66;57.93
40490;BME280;26196;52.302;10.572;2022-11-03T10:45:36;100371.88;;;13.67;56.34
40490;BME280;26196;52.302;10.572;2022-11-03T10:49:37;100356.94;;;13.67;56.63
40490;BME280;26196;52.302;10.572;2022-11-03T10:53:39;100330.69;;;13.66;57.16
40490;BME280;26196;52.302;10.572;2022-11-03T10:57:41;100327.81;;;13.72;56.10
40490;BME280;26196;52.302;10.572;2022-11-03T11:01:42;100326.09;;;13.71;56.65
40490;BME280;26196;52.302;10.572;2022-11-03T11:05:46;100337.41;;;13.73;56.50
40490;BME280;26196;52.302;10.572;2022-11-03T11:09:47;100326.00;;;13.74;56.19
40490;BME280;26196;52.302;10.572;2022-11-03T11:14:33;100310.06;;;13.77;55.67
40490;BME280;26196;52.302;10.572;2022-11-03T11:18:58;100301.25;;;13.78;56.32
40490;BME280;26196;52.302;10.572;2022-11-03T11:31:39;100288.78;;;13.82;55.75
40490;BME280;26196;52.302;10.572;2022-11-03T11:43:43;100260.59;;;13.85;55.58
40490;BME280;26196;52.302;10.572;2022-11-03T11:47:49;100261.31;;;13.89;56.09
40490;BME280;26196;52.302;10.572;2022-11-03T11:51:50;100245.50;;;13.89;55.54
40490;BME280;26196;52.302;10.572;2022-11-03T11:55:57;100232.31;;;13.90;55.75
40490;BME280;26196;52.302;10.572;2022-11-03T11:59:58;100222.56;;;13.92;55.83
40490;BME280;26196;52.302;10.572;2022-11-03T12:04:04;100206.84;;;13.91;55.91
40490;BME280;26196;52.302;10.572;2022-11-03T12:08:19;100210.16;;;13.94;55.68
40490;BME280;26196;52.302;10.572;2022-11-03T12:12:40;100203.16;;;13.95;56.28
40490;BME280;26196;52.302;10.572;2022-11-03T12:16:41;100184.75;;;13.95;56.13
40490;BME280;26196;52.302;10.572;2022-11-03T12:20:45;100181.13;;;13.97;56.37
40490;BME280;26196;52.302;10.572;2022-11-03T12:25:02;100164.38;;;13.98;57.25
40490;BME280;26196;52.302;10.572;2022-11-03T12:29:04;100156.50;;;13.98;56.05
40490;BME280;26196;52.302;10.572;2022-11-03T12:33:05;100149.38;;;14.00;56.52
40490;BME280;26196;52.302;10.572;2022-11-03T12:37:05;100145.81;;;14.01;57.91
40490;BME280;26196;52.302;10.572;2022-11-03T12:41:06;100135.28;;;14.01;56.71
40490;BME280;26196;52.302;10.572;2022-11-03T12:45:21;100124.72;;;14.03;57.40
40490;BME280;26196;52.302;10.572;2022-11-03T12:49:21;100117.66;;;14.04;56.26
40490;BME280;26196;52.302;10.572;2022-11-03T12:53:22;100083.88;;;13.94;56.61
40490;BME280;26196;52.302;10.572;2022-11-03T12:57:22;100095.59;;;14.06;56.45
40490;BME280;26196;52.302;10.572;2022-11-03T13:01:24;100086.78;;;14.07;56.91
40490;BME280;26196;52.302;10.572;2022-11-03T13:05:24;100075.41;;;14.07;56.66
40490;BME280;26196;52.302;10.572;2022-11-03T13:09:25;100081.44;;;14.09;57.37
40490;BME280;26196;52.302;10.572;2022-11-03T13:13:25;100075.25;;;14.10;57.49
40490;BME280;26196;52.302;10.572;2022-11-03T13:17:26;100076.97;;;14.11;56.26
40490;BME280;26196;52.302;10.572;2022-11-03T13:21:27;100065.50;;;14.12;57.16
40490;BME280;26196;52.302;10.572;2022-11-03T13:25:27;100054.97;;;14.12;57.21
40490;BME280;26196;52.302;10.572;2022-11-03T13:29:28;100038.25;;;14.13;57.30
40490;BME280;26196;52.302;10.572;2022-11-03T13:33:28;100025.09;;;14.13;57.29
40490;BME280;26196;52.302;10.572;2022-11-03T13:37:29;100022.44;;;14.13;57.32
40490;BME280;26196;52.302;10.572;2022-11-03T13:41:29;100019.81;;;14.13;57.23
40490;BME280;26196;52.302;10.572;2022-11-03T13:45:30;100017.28;;;14.11;57.54
40490;BME280;26196;52.302;10.572;2022-11-03T13:49:30;100012.88;;;14.12;57.26
40490;BME280;26196;52.302;10.572;2022-11-03T13:53:31;100008.44;;;14.12;57.55
40490;BME280;26196;52.302;10.572;2022-11-03T13:57:31;100001.41;;;14.13;57.01
40490;BME280;26196;52.302;10.572;2022-11-03T14:01:32;100000.56;;;14.12;56.49
40490;BME280;26196;52.302;10.572;2022-11-03T14:05:32;99992.59;;;14.14;56.97
40490;BME280;26196;52.302;10.572;2022-11-03T14:09:33;99988.19;;;14.14;56.57
40490;BME280;26196;52.302;10.572;2022-11-03T14:13:33;99987.22;;;14.15;56.37
40490;BME280;26196;52.302;10.572;2022-11-03T14:17:34;99981.06;;;14.16;56.64
40490;BME280;26196;52.302;10.572;2022-11-03T14:21:35;99965.34;;;14.15;56.99
40490;BME280;26196;52.302;10.572;2022-11-03T14:25:36;99968.81;;;14.15;56.58
40490;BME280;26196;52.302;10.572;2022-11-03T14:29:37;99969.69;;;14.16;56.41
40490;BME280;26196;52.302;10.572;2022-11-03T14:33:38;99958.22;;;14.17;57.16
40490;BME280;26196;52.302;10.572;2022-11-03T14:37:38;99947.75;;;14.15;56.40
40490;BME280;26196;52.302;10.572;2022-11-03T14:41:39;99936.38;;;14.15;57.04
40490;BME280;26196;52.302;10.572;2022-11-03T14:45:58;99929.44;;;14.14;56.90
40490;BME280;26196;52.302;10.572;2022-11-03T14:49:58;99927.56;;;14.16;56.33
40490;BME280;26196;52.302;10.572;2022-11-03T14:53:58;99909.16;;;14.16;56.50
40490;BME280;26196;52.302;10.572;2022-11-03T14:57:59;99889.16;;;14.12;57.00
40490;BME280;26196;52.302;10.572;2022-11-03T15:02:00;99893.44;;;14.14;57.11
40490;BME280;26196;52.302;10.572;2022-11-03T15:06:00;99882.84;;;14.16;56.62
40490;BME280;26196;52.302;10.572;2022-11-03T15:10:01;99879.25;;;14.17;56.34
40490;BME280;26196;52.302;10.572;2022-11-03T15:14:02;99863.53;;;14.15;56.53
40490;BME280;26196;52.302;10.572;2022-11-03T15:18:03;99864.31;;;14.17;56.29
40490;BME280;26196;52.302;10.572;2022-11-03T15:22:03;99843.25;;;14.17;56.39
40490;BME280;26196;52.302;10.572;2022-11-03T15:26:04;99834.50;;;14.17;56.74
40490;BME280;26196;52.302;10.572;2022-11-03T15:30:05;99822.19;;;14.17;56.36
40490;BME280;26196;52.302;10.572;2022-11-03T15:34:09;99807.19;;;14.19;58.14
40490;BME280;26196;52.302;10.572;2022-11-03T15:38:09;99803.59;;;14.20;56.17
40490;BME280;26196;52.302;10.572;2022-11-03T15:42:10;99805.31;;;14.21;56.43
40490;BME280;26196;52.302;10.572;2022-11-03T15:46:10;99801.91;;;14.19;56.86
40490;BME280;26196;52.302;10.572;2022-11-03T15:50:11;99798.34;;;14.20;56.76
40490;BME280;26196;52.302;10.572;2022-11-03T15:54:12;99794.69;;;14.23;56.72
40490;BME280;26196;52.302;10.572;2022-11-03T15:58:12;99792.06;;;14.23;55.98
40490;BME280;26196;52.302;10.572;2022-11-03T16:02:13;99779.84;;;14.22;56.97
40490;BME280;26196;52.302;10.572;2022-11-03T16:06:13;99767.53;;;14.22;56.64
40490;BME280;26196;52.302;10.572;2022-11-03T16:10:13;99760.41;;;14.25;57.07
40490;BME280;26196;52.302;10.572;2022-11-03T16:14:14;99748.25;;;14.22;57.06
40490;BME280;26196;52.302;10.572;2022-11-03T16:18:15;99745.56;;;14.23;57.27
40490;BME280;26196;52.302;10.572;2022-11-03T16:22:15;99747.25;;;14.25;56.91
40490;BME280;26196;52.302;10.572;2022-11-03T16:26:16;99755.22;;;14.23;56.76
40490;BME280;26196;52.302;10.572;2022-11-03T16:30:21;99753.47;;;14.23;57.30
40490;BME280;26196;52.302;10.572;2022-11-03T16:34:21;99735.88;;;14.24;56.89
40490;BME280;26196;52.302;10.572;2022-11-03T16:38:22;99740.97;;;14.27;56.94
40490;BME280;26196;52.302;10.572;2022-11-03T16:42:22;99733.16;;;14.26;56.80
40490;BME280;26196;52.302;10.572;2022-11-03T16:46:23;99727.81;;;14.27;57.02
40490;BME280;26196;52.302;10.572;2022-11-03T16:50:24;99719.25;;;14.23;56.59
40490;BME280;26196;52.302;10.572;2022-11-03T16:54:24;99714.03;;;14.22;56.33
40490;BME280;26196;52.302;10.572;2022-11-03T16:58:25;99710.63;;;14.20;55.58
40490;BME280;26196;52.302;10.572;2022-11-03T17:02:26;99710.81;;;14.17;55.63
40490;BME280;26196;52.302;10.572;2022-11-03T17:06:27;99690.72;;;14.16;56.18
40490;BME280;26196;52.302;10.572;2022-11-03T17:10:27;99694.97;;;14.18;55.68
40490;BME280;26196;52.302;10.572;2022-11-03T17:14:29;99680.19;;;14.16;55.97
40490;BME280;26196;52.302;10.572;2022-11-03T17:18:30;99675.84;;;14.15;55.76
40490;BME280;26196;52.302;10.572;2022-11-03T17:22:30;99672.34;;;14.14;55.53
40490;BME280;26196;52.302;10.572;2022-11-03T17:26:41;99654.00;;;14.13;55.02
40490;BME280;26196;52.302;10.572;2022-11-03T17:30:44;99653.00;;;14.15;55.42
40490;BME280;26196;52.302;10.572;2022-11-03T17:34:45;99643.47;;;14.13;55.15
40490;BME280;26196;52.302;10.572;2022-11-03T17:38:45;99645.38;;;14.11;55.48
40490;BME280;26196;52.302;10.572;2022-11-03T17:42:46;99650.63;;;14.11;55.57
40490;BME280;26196;52.302;10.572;2022-11-03T17:46:47;99642.63;;;14.12;55.84
40490;BME280;26196;52.302;10.572;2022-11-03T17:50:49;99635.50;;;14.14;55.78
40490;BME280;26196;52.302;10.572;2022-11-03T17:54:50;99625.84;;;14.15;55.69
40490;BME280;26196;52.302;10.572;2022-11-03T17:58:51;99625.06;;;14.13;55.60
40490;BME280;26196;52.302;10.572;2022-11-03T18:02:52;99610.22;;;14.12;55.45
40490;BME280;26196;52.302;10.572;2022-11-03T18:06:52;99596.13;;;14.13;55.53
40490;BME280;26196;52.302;10.572;2022-11-03T18:10:53;99591.63;;;14.15;56.10
40490;BME280;26196;52.302;10.572;2022-11-03T18:14:55;99582.94;;;14.13;55.75
40490;BME280;26196;52.302;10.572;2022-11-03T18:18:56;99560.16;;;14.13;55.43
40490;BME280;26196;52.302;10.572;2022-11-03T18:23:16;99553.09;;;14.14;56.39
40490;BME280;26196;52.302;10.572;2022-11-03T18:27:18;99560.81;;;14.17;56.29
40490;BME280;26196;52.302;10.572;2022-11-03T18:31:21;99555.53;;;14.17;56.23
40490;BME280;26196;52.302;10.572;2022-11-03T18:35:24;99543.34;;;14.16;55.85
40490;BME280;26196;52.302;10.572;2022-11-03T18:39:27;99536.34;;;14.15;55.98
40490;BME280;26196;52.302;10.572;2022-11-03T18:43:28;99543.34;;;14.16;56.23
40490;BME280;26196;52.302;10.572;2022-11-03T18:47:29;99537.88;;;14.19;55.52
40490;BME280;26196;52.302;10.572;2022-11-03T18:51:29;99529.22;;;14.17;56.07
40490;BME280;26196;52.302;10.572;2022-11-03T18:55:30;99517.09;;;14.14;55.67
40490;BME280;26196;52.302;10.572;2022-11-03T18:59:32;99512.66;;;14.15;55.91
40490;BME280;26196;52.302;10.572;2022-11-03T19:03:36;99505.63;;;14.15;56.01
40490;BME280;26196;52.302;10.572;2022-11-03T19:07:37;99508.16;;;14.17;56.02
40490;BME280;26196;52.302;10.572;2022-11-03T19:11:39;99495.97;;;14.16;55.63
40490;BME280;26196;52.302;10.572;2022-11-03T19:15:40;99504.59;;;14.18;56.09
40490;BME280;26196;52.302;10.572;2022-11-03T19:19:40;99501.88;;;14.19;56.08
40490;BME280;26196;52.302;10.572;2022-11-03T19:23:41;99496.63;;;14.19;55.69
40490;BME280;26196;52.302;10.572;2022-11-03T19:27:43;99489.56;;;14.20;56.04
40490;BME280;26196;52.302;10.572;2022-11-03T19:31:47;99461.56;;;14.19;55.99
40490;BME280;26196;52.302;10.572;2022-11-03T19:35:48;99459.78;;;14.19;56.08
40490;BME280;26196;52.302;10.572;2022-11-03T19:39:49;99454.44;;;14.21;55.89
40490;BME280;26196;52.302;10.572;2022-11-03T19:43:50;99446.53;;;14.21;55.65
40490;BME280;26196;52.302;10.572;2022-11-03T19:47:56;99435.91;;;14.22;56.12
40490;BME280;26196;52.302;10.572;2022-11-03T19:51:57;99427.16;;;14.22;56.20
40490;BME280;26196;52.302;10.572;2022-11-03T19:55:58;99421.81;;;14.23;55.84
40490;BME280;26196;52.302;10.572;2022-11-03T19:59:59;99414.75;;;14.24;55.86
40490;BME280;26196;52.302;10.572;2022-11-03T20:03:59;99397.19;;;14.25;56.18
40490;BME280;26196;52.302;10.572;2022-11-03T20:08:03;99394.56;;;14.25;56.42
40490;BME280;26196;52.302;10.572;2022-11-03T20:12:05;99391.84;;;14.26;56.14
40490;BME280;26196;52.302;10.572;2022-11-03T20:16:11;99384.88;;;14.25;55.65
40490;BME280;26196;52.302;10.572;2022-11-03T20:20:14;99389.09;;;14.28;55.67
40490;BME280;26196;52.302;10.572;2022-11-03T20:24:16;99381.19;;;14.28;55.38
40490;BME280;26196;52.302;10.572;2022-11-03T20:28:24;99374.25;;;14.27;56.01
40490;BME280;26196;52.302;10.572;2022-11-03T20:32:25;99386.38;;;14.29;55.37
40490;BME280;26196;52.302;10.572;2022-11-03T20:36:25;99388.06;;;14.30;55.42
40490;BME280;26196;52.302;10.572;2022-11-03T20:40:29;99389.78;;;14.31;55.76
40490;BME280;26196;52.302;10.572;2022-11-03T20:44:30;99379.25;;;14.31;55.53
40490;BME280;26196;52.302;10.572;2022-11-03T20:48:30;99370.41;;;14.32;55.60
40490;BME280;26196;52.302;10.572;2022-11-03T20:52:31;99351.97;;;14.32;55.94
40490;BME280;26196;52.302;10.572;2022-11-03T20:56:31;99356.28;;;14.33;55.61
40490;BME280;26196;52.302;10.572;2022-11-03T21:00:37;99351.97;;;14.32;55.84
40490;BME280;26196;52.302;10.572;2022-11-03T21:04:38;99341.44;;;14.32;55.86
40490;BME280;26196;52.302;10.572;2022-11-03T21:08:39;99353.56;;;14.35;56.07
40490;BME280;26196;52.302;10.572;2022-11-03T21:12:40;99349.16;;;14.35;55.83
40490;BME280;26196;52.302;10.572;2022-11-03T21:16:41;99354.41;;;14.35;56.01
40490;BME280;26196;52.302;10.572;2022-11-03T21:21:00;99352.72;;;14.34;55.91
40490;BME280;26196;52.302;10.572;2022-11-03T21:25:02;99366.63;;;14.36;55.74
40490;BME280;26196;52.302;10.572;2022-11-03T21:29:03;99371.88;;;14.36;55.58
40490;BME280;26196;52.302;10.572;2022-11-03T21:33:03;99378.88;;;14.37;55.86